Terminal Aerodrome Forecast
Issued by NWS Louisville, KY

Home | Current Version | Previous Version | Text Only | Print | Product List | Glossary On
Versions: 1 2 3 4 5 6 7 8 9 10 11 12 13 14
000
FTUS43 KLMK 222300
TAFSDF
TAF
KSDF 222320Z 2300/2406 29013G23KT P6SM SCT250
     FM230100 27007KT P6SM FEW250
     FM231300 29012KT P6SM SKC=

USA.gov is the U.S. government's official web portal to all federal, state and local government web resources and services.